Aeroporto :
LOGIN :

Iscrizione | Disclaimer

   EN    FR    IT 

 










Sommario :    VFR   VFR Marginale   IFR   IFR Intensivo   IFR Molto Intensivo
Visibilità : 
Base nubi : 
>= 8 km
>= 3000ft
5 / 8 km
1000 / 3000 ft
1500m / 5 km
500 / 1000 ft
800 / 1500m
200 / 500 ft
< 800m
< 200 ft
Simboli :   Temporali  Nebbia  Neve Forte  Precipitazioni Forti  Vento > 20 kt
SIGMETs :   Varie  Temporali  Ghiacco  Turbolenza  Onda orograficha  Ceneri Vulcaniche






- Altitudine del aeroporto : 137 ft
- Codice IATA : THN


ESGT - Trollhattan-Vanersborg

ULTIMO METAR :
  • 120520Z 13008KT 9999 BKN025 04/02 Q1002

METARs OBSOLETI :
  • 120450Z AUTO 13006KT 9999 R15/P2000N R33///// SCT024/// BKN098/// OVC120/// 04/02 Q1002
  • 120420Z AUTO 12008KT 9999 R15/P2000N R33///// BKN120/// OVC140/// 04/02 Q1002
  • 120350Z AUTO 09008KT 9999 R15/P2000N R33///// FEW084/// OVC100/// 04/02 Q1002
  • 120320Z AUTO 09009KT 9999 R15/P2000N R33///// OVC110/// 04/02 Q1003
  • 120250Z AUTO 12012KT 9999 R15/P2000N R33///// FEW022/// OVC120/// 04/02 Q1003

TAF TAF ESGT
Valido dal 12 a 06 ore il 12 a 15 ore UTC


120530Z 1206/1215 13007KT 9999 SCT025
PROB40 1210/1215 SHRA BKN008 BKN015TCU



MetMap, La meteo Aeronautica in un colpo d'occhio ! - Copyright ORBIFLY Dicembre 2007 - Disclaimer

ORBIFLY MET'MAP TEAM :

Programmazione e sviluppo : Alexandra Zaïnal
Concezione e sviluppo : Baudouin d'Aumeries
Co-Programmazione e sviluppo : Marc-Olivier Méhu
Supporto tecnico e logistico : Manuel Goepfert
Aiuto per la traduzione : Arnaldo La Scala

Contatto : metmap@orbifly.com




FONTI E CREDITI :

   NOAA